sensor_id;sensor_type;location;lat;lon;timestamp;P1;durP1;ratioP1;P2;durP2;ratioP2
16600;SDS011;34891;48.164;11.572;2023-05-16T00:01:10;6.55;;;3.10;;
16600;SDS011;34891;48.164;11.572;2023-05-16T00:06:13;6.13;;;3.30;;
16600;SDS011;34891;48.164;11.572;2023-05-16T00:11:17;5.07;;;2.95;;
16600;SDS011;34891;48.164;11.572;2023-05-16T00:16:21;6.77;;;2.93;;
16600;SDS011;34891;48.164;11.572;2023-05-16T00:21:26;6.03;;;2.95;;
16600;SDS011;34891;48.164;11.572;2023-05-16T00:26:28;6.35;;;3.30;;
16600;SDS011;34891;48.164;11.572;2023-05-16T00:31:32;6.40;;;3.10;;
16600;SDS011;34891;48.164;11.572;2023-05-16T00:36:35;3.47;;;2.45;;
16600;SDS011;34891;48.164;11.572;2023-05-16T00:41:38;4.70;;;2.58;;
16600;SDS011;34891;48.164;11.572;2023-05-16T00:46:42;5.00;;;2.60;;
16600;SDS011;34891;48.164;11.572;2023-05-16T00:56:47;7.63;;;3.60;;
16600;SDS011;34891;48.164;11.572;2023-05-16T01:01:51;5.30;;;2.80;;
16600;SDS011;34891;48.164;11.572;2023-05-16T01:06:54;6.13;;;2.55;;
16600;SDS011;34891;48.164;11.572;2023-05-16T01:12:00;4.97;;;2.58;;
16600;SDS011;34891;48.164;11.572;2023-05-16T01:17:06;6.45;;;3.65;;
16600;SDS011;34891;48.164;11.572;2023-05-16T01:22:10;6.80;;;3.50;;
16600;SDS011;34891;48.164;11.572;2023-05-16T01:27:18;6.47;;;2.95;;
16600;SDS011;34891;48.164;11.572;2023-05-16T01:32:21;5.05;;;2.95;;
16600;SDS011;34891;48.164;11.572;2023-05-16T01:37:26;6.82;;;3.35;;
16600;SDS011;34891;48.164;11.572;2023-05-16T01:42:33;7.88;;;3.65;;
16600;SDS011;34891;48.164;11.572;2023-05-16T01:47:39;5.00;;;2.38;;
16600;SDS011;34891;48.164;11.572;2023-05-16T01:52:44;6.07;;;3.28;;
16600;SDS011;34891;48.164;11.572;2023-05-16T01:57:49;6.82;;;3.90;;
16600;SDS011;34891;48.164;11.572;2023-05-16T02:02:51;7.68;;;1.98;;
16600;SDS011;34891;48.164;11.572;2023-05-16T02:07:54;6.40;;;3.40;;
16600;SDS011;34891;48.164;11.572;2023-05-16T02:12:58;8.85;;;3.80;;
16600;SDS011;34891;48.164;11.572;2023-05-16T02:18:01;8.05;;;4.20;;
16600;SDS011;34891;48.164;11.572;2023-05-16T02:23:03;7.72;;;3.83;;
16600;SDS011;34891;48.164;11.572;2023-05-16T02:28:08;6.67;;;2.93;;
16600;SDS011;34891;48.164;11.572;2023-05-16T02:38:13;8.80;;;4.38;;
16600;SDS011;34891;48.164;11.572;2023-05-16T02:43:19;6.18;;;3.22;;
16600;SDS011;34891;48.164;11.572;2023-05-16T02:48:23;15.05;;;4.85;;
16600;SDS011;34891;48.164;11.572;2023-05-16T02:53:25;2.33;;;1.30;;
16600;SDS011;34891;48.164;11.572;2023-05-16T02:58:30;7.30;;;3.22;;
16600;SDS011;34891;48.164;11.572;2023-05-16T03:03:32;8.35;;;4.03;;
16600;SDS011;34891;48.164;11.572;2023-05-16T03:08:36;8.40;;;3.47;;
16600;SDS011;34891;48.164;11.572;2023-05-16T03:13:40;9.43;;;4.53;;
16600;SDS011;34891;48.164;11.572;2023-05-16T03:18:43;9.60;;;4.22;;
16600;SDS011;34891;48.164;11.572;2023-05-16T03:23:46;8.17;;;4.40;;
16600;SDS011;34891;48.164;11.572;2023-05-16T03:28:53;10.30;;;4.20;;
16600;SDS011;34891;48.164;11.572;2023-05-16T03:38:58;10.52;;;4.97;;
16600;SDS011;34891;48.164;11.572;2023-05-16T03:44:02;9.25;;;4.22;;
16600;SDS011;34891;48.164;11.572;2023-05-16T03:54:07;9.88;;;4.70;;
16600;SDS011;34891;48.164;11.572;2023-05-16T03:59:11;11.43;;;4.85;;
16600;SDS011;34891;48.164;11.572;2023-05-16T04:09:17;9.57;;;4.57;;
16600;SDS011;34891;48.164;11.572;2023-05-16T04:14:21;3.60;;;1.97;;
16600;SDS011;34891;48.164;11.572;2023-05-16T04:19:24;10.93;;;5.22;;
16600;SDS011;34891;48.164;11.572;2023-05-16T04:24:27;3.93;;;2.57;;
16600;SDS011;34891;48.164;11.572;2023-05-16T04:29:32;12.70;;;5.40;;
16600;SDS011;34891;48.164;11.572;2023-05-16T04:34:36;7.88;;;4.38;;
16600;SDS011;34891;48.164;11.572;2023-05-16T04:39:40;8.55;;;4.32;;
16600;SDS011;34891;48.164;11.572;2023-05-16T04:44:45;10.95;;;5.18;;
16600;SDS011;34891;48.164;11.572;2023-05-16T04:49:48;10.25;;;5.30;;
16600;SDS011;34891;48.164;11.572;2023-05-16T04:54:50;13.60;;;5.53;;
16600;SDS011;34891;48.164;11.572;2023-05-16T04:59:55;13.07;;;6.33;;
16600;SDS011;34891;48.164;11.572;2023-05-16T05:04:58;11.07;;;5.95;;
16600;SDS011;34891;48.164;11.572;2023-05-16T05:10:00;10.95;;;5.60;;
16600;SDS011;34891;48.164;11.572;2023-05-16T05:15:05;12.67;;;5.90;;
16600;SDS011;34891;48.164;11.572;2023-05-16T05:20:10;10.70;;;5.70;;
16600;SDS011;34891;48.164;11.572;2023-05-16T05:30:18;15.82;;;6.15;;
16600;SDS011;34891;48.164;11.572;2023-05-16T05:35:20;14.30;;;6.35;;
16600;SDS011;34891;48.164;11.572;2023-05-16T05:40:23;14.95;;;6.45;;
16600;SDS011;34891;48.164;11.572;2023-05-16T05:45:27;13.90;;;6.50;;
16600;SDS011;34891;48.164;11.572;2023-05-16T05:50:30;14.50;;;6.35;;
16600;SDS011;34891;48.164;11.572;2023-05-16T05:55:33;16.80;;;7.15;;
16600;SDS011;34891;48.164;11.572;2023-05-16T06:00:37;15.65;;;7.25;;
16600;SDS011;34891;48.164;11.572;2023-05-16T06:05:40;15.40;;;7.88;;
16600;SDS011;34891;48.164;11.572;2023-05-16T06:10:42;16.42;;;7.10;;
16600;SDS011;34891;48.164;11.572;2023-05-16T06:15:50;15.23;;;6.53;;
16600;SDS011;34891;48.164;11.572;2023-05-16T06:20:52;15.23;;;6.38;;
16600;SDS011;34891;48.164;11.572;2023-05-16T06:25:55;17.98;;;6.57;;
16600;SDS011;34891;48.164;11.572;2023-05-16T06:30:59;11.60;;;6.47;;
16600;SDS011;34891;48.164;11.572;2023-05-16T06:36:01;11.90;;;6.20;;
16600;SDS011;34891;48.164;11.572;2023-05-16T06:41:04;12.17;;;6.27;;
16600;SDS011;34891;48.164;11.572;2023-05-16T06:46:08;13.43;;;6.47;;
16600;SDS011;34891;48.164;11.572;2023-05-16T06:51:11;12.02;;;6.45;;
16600;SDS011;34891;48.164;11.572;2023-05-16T06:56:14;15.32;;;6.82;;
16600;SDS011;34891;48.164;11.572;2023-05-16T07:01:18;14.77;;;6.90;;
16600;SDS011;34891;48.164;11.572;2023-05-16T07:06:21;11.85;;;6.72;;
16600;SDS011;34891;48.164;11.572;2023-05-16T07:11:23;14.02;;;6.95;;
16600;SDS011;34891;48.164;11.572;2023-05-16T07:16:27;13.13;;;6.93;;
16600;SDS011;34891;48.164;11.572;2023-05-16T07:21:30;14.35;;;7.05;;
16600;SDS011;34891;48.164;11.572;2023-05-16T07:26:32;13.30;;;6.90;;
16600;SDS011;34891;48.164;11.572;2023-05-16T07:31:36;10.40;;;6.03;;
16600;SDS011;34891;48.164;11.572;2023-05-16T07:36:39;15.15;;;6.97;;
16600;SDS011;34891;48.164;11.572;2023-05-16T07:41:41;16.27;;;6.90;;
16600;SDS011;34891;48.164;11.572;2023-05-16T07:46:45;16.65;;;7.50;;
16600;SDS011;34891;48.164;11.572;2023-05-16T07:51:48;12.27;;;6.70;;
16600;SDS011;34891;48.164;11.572;2023-05-16T07:56:51;17.63;;;8.02;;
16600;SDS011;34891;48.164;11.572;2023-05-16T08:01:55;15.50;;;7.82;;
16600;SDS011;34891;48.164;11.572;2023-05-16T08:06:58;16.35;;;8.45;;
16600;SDS011;34891;48.164;11.572;2023-05-16T08:12:00;18.88;;;7.80;;
16600;SDS011;34891;48.164;11.572;2023-05-16T08:17:05;19.58;;;8.27;;
16600;SDS011;34891;48.164;11.572;2023-05-16T08:22:08;15.90;;;7.68;;
16600;SDS011;34891;48.164;11.572;2023-05-16T08:27:11;16.95;;;8.88;;
16600;SDS011;34891;48.164;11.572;2023-05-16T08:32:15;14.60;;;7.47;;
16600;SDS011;34891;48.164;11.572;2023-05-16T08:37:18;16.67;;;7.82;;
16600;SDS011;34891;48.164;11.572;2023-05-16T08:42:21;18.13;;;8.07;;
16600;SDS011;34891;48.164;11.572;2023-05-16T08:47:25;15.40;;;8.33;;
16600;SDS011;34891;48.164;11.572;2023-05-16T08:52:29;17.08;;;8.30;;
16600;SDS011;34891;48.164;11.572;2023-05-16T08:57:34;15.02;;;7.95;;
16600;SDS011;34891;48.164;11.572;2023-05-16T09:02:38;15.63;;;7.97;;
16600;SDS011;34891;48.164;11.572;2023-05-16T09:07:42;14.68;;;7.78;;
16600;SDS011;34891;48.164;11.572;2023-05-16T09:12:45;16.90;;;7.65;;
16600;SDS011;34891;48.164;11.572;2023-05-16T09:17:49;16.33;;;7.93;;
16600;SDS011;34891;48.164;11.572;2023-05-16T09:22:53;15.90;;;8.30;;
16600;SDS011;34891;48.164;11.572;2023-05-16T09:33:00;12.85;;;7.50;;
16600;SDS011;34891;48.164;11.572;2023-05-16T09:38:03;14.52;;;8.07;;
16600;SDS011;34891;48.164;11.572;2023-05-16T09:43:06;13.63;;;7.97;;
16600;SDS011;34891;48.164;11.572;2023-05-16T09:48:10;11.60;;;7.17;;
16600;SDS011;34891;48.164;11.572;2023-05-16T09:53:14;14.75;;;8.32;;
16600;SDS011;34891;48.164;11.572;2023-05-16T09:58:16;13.47;;;8.07;;
16600;SDS011;34891;48.164;11.572;2023-05-16T10:03:21;14.32;;;8.55;;
16600;SDS011;34891;48.164;11.572;2023-05-16T10:08:25;12.52;;;7.82;;
16600;SDS011;34891;48.164;11.572;2023-05-16T10:13:28;12.93;;;7.95;;
16600;SDS011;34891;48.164;11.572;2023-05-16T10:18:33;14.10;;;8.80;;
16600;SDS011;34891;48.164;11.572;2023-05-16T10:23:37;14.18;;;8.35;;
16600;SDS011;34891;48.164;11.572;2023-05-16T10:28:42;15.20;;;9.23;;
16600;SDS011;34891;48.164;11.572;2023-05-16T10:33:46;14.70;;;9.03;;
16600;SDS011;34891;48.164;11.572;2023-05-16T10:38:49;13.93;;;8.68;;
16600;SDS011;34891;48.164;11.572;2023-05-16T10:43:55;17.75;;;9.25;;
16600;SDS011;34891;48.164;11.572;2023-05-16T10:48:59;20.23;;;9.55;;
16600;SDS011;34891;48.164;11.572;2023-05-16T10:54:20;15.85;;;9.50;;
16600;SDS011;34891;48.164;11.572;2023-05-16T10:59:38;16.23;;;8.57;;
16600;SDS011;34891;48.164;11.572;2023-05-16T11:04:45;15.30;;;8.00;;
16600;SDS011;34891;48.164;11.572;2023-05-16T11:09:52;16.15;;;9.25;;
16600;SDS011;34891;48.164;11.572;2023-05-16T11:15:18;17.48;;;9.10;;
16600;SDS011;34891;48.164;11.572;2023-05-16T11:20:26;12.65;;;6.90;;
16600;SDS011;34891;48.164;11.572;2023-05-16T11:25:33;22.13;;;9.32;;
16600;SDS011;34891;48.164;11.572;2023-05-16T11:30:42;20.60;;;10.05;;
16600;SDS011;34891;48.164;11.572;2023-05-16T11:35:59;20.67;;;10.23;;
16600;SDS011;34891;48.164;11.572;2023-05-16T11:41:16;21.27;;;10.95;;
16600;SDS011;34891;48.164;11.572;2023-05-16T11:46:22;21.02;;;10.32;;
16600;SDS011;34891;48.164;11.572;2023-05-16T11:51:30;22.88;;;11.20;;
16600;SDS011;34891;48.164;11.572;2023-05-16T11:56:35;19.45;;;10.30;;
16600;SDS011;34891;48.164;11.572;2023-05-16T12:01:40;17.98;;;9.98;;
16600;SDS011;34891;48.164;11.572;2023-05-16T12:06:56;19.88;;;9.82;;
16600;SDS011;34891;48.164;11.572;2023-05-16T12:11:58;17.38;;;9.80;;
16600;SDS011;34891;48.164;11.572;2023-05-16T12:17:01;18.23;;;10.70;;
16600;SDS011;34891;48.164;11.572;2023-05-16T12:22:12;19.58;;;11.05;;
16600;SDS011;34891;48.164;11.572;2023-05-16T12:27:20;19.60;;;9.80;;
16600;SDS011;34891;48.164;11.572;2023-05-16T12:32:23;20.50;;;11.30;;
16600;SDS011;34891;48.164;11.572;2023-05-16T12:37:27;19.00;;;10.40;;
16600;SDS011;34891;48.164;11.572;2023-05-16T12:42:30;18.50;;;10.32;;
16600;SDS011;34891;48.164;11.572;2023-05-16T12:47:34;19.17;;;11.10;;
16600;SDS011;34891;48.164;11.572;2023-05-16T12:52:39;16.95;;;9.90;;
16600;SDS011;34891;48.164;11.572;2023-05-16T12:57:48;20.80;;;11.70;;
16600;SDS011;34891;48.164;11.572;2023-05-16T13:02:50;16.85;;;10.45;;
16600;SDS011;34891;48.164;11.572;2023-05-16T13:07:55;20.27;;;10.55;;
16600;SDS011;34891;48.164;11.572;2023-05-16T13:12:57;20.90;;;10.93;;
16600;SDS011;34891;48.164;11.572;2023-05-16T13:18:00;17.77;;;10.27;;
16600;SDS011;34891;48.164;11.572;2023-05-16T13:23:05;20.88;;;11.27;;
16600;SDS011;34891;48.164;11.572;2023-05-16T13:28:08;23.45;;;11.88;;
16600;SDS011;34891;48.164;11.572;2023-05-16T13:33:11;13.60;;;9.27;;
16600;SDS011;34891;48.164;11.572;2023-05-16T13:38:15;15.50;;;8.00;;
16600;SDS011;34891;48.164;11.572;2023-05-16T13:43:19;17.92;;;7.95;;
16600;SDS011;34891;48.164;11.572;2023-05-16T13:48:22;14.38;;;6.93;;
16600;SDS011;34891;48.164;11.572;2023-05-16T13:53:26;13.10;;;6.60;;
16600;SDS011;34891;48.164;11.572;2023-05-16T13:58:29;11.63;;;6.43;;
16600;SDS011;34891;48.164;11.572;2023-05-16T14:03:32;8.95;;;5.53;;
16600;SDS011;34891;48.164;11.572;2023-05-16T14:08:38;12.90;;;5.72;;
16600;SDS011;34891;48.164;11.572;2023-05-16T14:13:41;9.25;;;5.32;;
16600;SDS011;34891;48.164;11.572;2023-05-16T14:18:43;10.85;;;5.43;;
16600;SDS011;34891;48.164;11.572;2023-05-16T14:23:47;12.35;;;5.80;;
16600;SDS011;34891;48.164;11.572;2023-05-16T14:28:50;10.60;;;5.00;;
16600;SDS011;34891;48.164;11.572;2023-05-16T14:33:53;10.93;;;5.70;;
16600;SDS011;34891;48.164;11.572;2023-05-16T14:38:57;11.48;;;6.35;;
16600;SDS011;34891;48.164;11.572;2023-05-16T14:44:00;10.00;;;5.72;;
16600;SDS011;34891;48.164;11.572;2023-05-16T14:49:03;10.50;;;5.63;;
16600;SDS011;34891;48.164;11.572;2023-05-16T14:54:08;10.73;;;5.90;;
16600;SDS011;34891;48.164;11.572;2023-05-16T14:59:11;12.05;;;5.90;;
16600;SDS011;34891;48.164;11.572;2023-05-16T15:04:14;8.77;;;5.18;;
16600;SDS011;34891;48.164;11.572;2023-05-16T15:09:18;9.48;;;5.55;;
16600;SDS011;34891;48.164;11.572;2023-05-16T15:14:21;13.18;;;6.50;;
16600;SDS011;34891;48.164;11.572;2023-05-16T15:19:24;10.48;;;5.28;;
16600;SDS011;34891;48.164;11.572;2023-05-16T15:24:28;10.63;;;5.97;;
16600;SDS011;34891;48.164;11.572;2023-05-16T15:29:31;10.88;;;6.05;;
16600;SDS011;34891;48.164;11.572;2023-05-16T15:34:34;11.50;;;6.10;;
16600;SDS011;34891;48.164;11.572;2023-05-16T15:39:38;11.60;;;6.18;;
16600;SDS011;34891;48.164;11.572;2023-05-16T15:44:42;12.05;;;6.40;;
16600;SDS011;34891;48.164;11.572;2023-05-16T15:49:45;10.85;;;6.07;;
16600;SDS011;34891;48.164;11.572;2023-05-16T15:54:49;10.73;;;5.93;;
16600;SDS011;34891;48.164;11.572;2023-05-16T15:59:52;10.20;;;6.07;;
16600;SDS011;34891;48.164;11.572;2023-05-16T16:04:55;11.37;;;6.40;;
16600;SDS011;34891;48.164;11.572;2023-05-16T16:09:59;14.27;;;6.70;;
16600;SDS011;34891;48.164;11.572;2023-05-16T16:15:02;12.80;;;6.90;;
16600;SDS011;34891;48.164;11.572;2023-05-16T16:20:07;11.00;;;6.65;;
16600;SDS011;34891;48.164;11.572;2023-05-16T16:25:11;15.93;;;8.13;;
16600;SDS011;34891;48.164;11.572;2023-05-16T16:30:18;16.35;;;8.50;;
16600;SDS011;34891;48.164;11.572;2023-05-16T16:35:21;14.40;;;7.93;;
16600;SDS011;34891;48.164;11.572;2023-05-16T16:40:27;17.52;;;8.25;;
16600;SDS011;34891;48.164;11.572;2023-05-16T16:45:30;18.10;;;8.80;;
16600;SDS011;34891;48.164;11.572;2023-05-16T16:50:33;16.10;;;8.38;;
16600;SDS011;34891;48.164;11.572;2023-05-16T16:55:37;18.55;;;8.52;;
16600;SDS011;34891;48.164;11.572;2023-05-16T17:00:41;19.27;;;8.65;;
16600;SDS011;34891;48.164;11.572;2023-05-16T17:05:44;17.40;;;8.68;;
16600;SDS011;34891;48.164;11.572;2023-05-16T17:10:48;18.90;;;10.02;;
16600;SDS011;34891;48.164;11.572;2023-05-16T17:15:51;16.80;;;8.95;;
16600;SDS011;34891;48.164;11.572;2023-05-16T17:20:53;21.83;;;9.63;;
16600;SDS011;34891;48.164;11.572;2023-05-16T17:25:58;20.33;;;9.65;;
16600;SDS011;34891;48.164;11.572;2023-05-16T17:31:01;23.38;;;11.30;;
16600;SDS011;34891;48.164;11.572;2023-05-16T17:36:04;20.23;;;10.32;;
16600;SDS011;34891;48.164;11.572;2023-05-16T17:41:08;18.90;;;10.03;;
16600;SDS011;34891;48.164;11.572;2023-05-16T17:46:11;24.52;;;11.65;;
16600;SDS011;34891;48.164;11.572;2023-05-16T17:51:14;21.03;;;10.33;;
16600;SDS011;34891;48.164;11.572;2023-05-16T17:56:20;21.25;;;9.95;;
16600;SDS011;34891;48.164;11.572;2023-05-16T18:01:25;23.85;;;10.52;;
16600;SDS011;34891;48.164;11.572;2023-05-16T18:06:28;19.85;;;9.38;;
16600;SDS011;34891;48.164;11.572;2023-05-16T18:11:33;25.65;;;11.77;;
16600;SDS011;34891;48.164;11.572;2023-05-16T18:16:36;21.15;;;10.10;;
16600;SDS011;34891;48.164;11.572;2023-05-16T18:21:38;20.58;;;10.05;;
16600;SDS011;34891;48.164;11.572;2023-05-16T18:26:42;23.70;;;10.80;;
16600;SDS011;34891;48.164;11.572;2023-05-16T18:31:48;20.77;;;9.75;;
16600;SDS011;34891;48.164;11.572;2023-05-16T18:36:51;21.52;;;10.10;;
16600;SDS011;34891;48.164;11.572;2023-05-16T18:42:04;18.55;;;9.20;;
16600;SDS011;34891;48.164;11.572;2023-05-16T18:47:07;19.80;;;9.77;;
16600;SDS011;34891;48.164;11.572;2023-05-16T18:52:10;16.83;;;8.70;;
16600;SDS011;34891;48.164;11.572;2023-05-16T18:57:14;13.68;;;7.45;;
16600;SDS011;34891;48.164;11.572;2023-05-16T19:02:17;13.88;;;7.50;;
16600;SDS011;34891;48.164;11.572;2023-05-16T19:07:34;14.50;;;6.85;;
16600;SDS011;34891;48.164;11.572;2023-05-16T19:12:38;14.63;;;7.07;;
16600;SDS011;34891;48.164;11.572;2023-05-16T19:22:44;13.45;;;7.00;;
16600;SDS011;34891;48.164;11.572;2023-05-16T19:27:48;15.43;;;7.00;;
16600;SDS011;34891;48.164;11.572;2023-05-16T19:37:53;15.15;;;5.97;;
16600;SDS011;34891;48.164;11.572;2023-05-16T19:42:57;13.45;;;5.53;;
16600;SDS011;34891;48.164;11.572;2023-05-16T19:53:02;12.43;;;5.35;;
16600;SDS011;34891;48.164;11.572;2023-05-16T19:58:06;12.50;;;6.03;;
16600;SDS011;34891;48.164;11.572;2023-05-16T20:08:11;11.18;;;5.20;;
16600;SDS011;34891;48.164;11.572;2023-05-16T20:13:16;11.40;;;5.20;;
16600;SDS011;34891;48.164;11.572;2023-05-16T20:18:21;10.52;;;4.60;;
16600;SDS011;34891;48.164;11.572;2023-05-16T20:23:24;11.13;;;5.00;;
16600;SDS011;34891;48.164;11.572;2023-05-16T20:28:28;11.47;;;4.90;;
16600;SDS011;34891;48.164;11.572;2023-05-16T20:33:31;11.85;;;5.32;;
16600;SDS011;34891;48.164;11.572;2023-05-16T20:38:34;11.98;;;4.57;;
16600;SDS011;34891;48.164;11.572;2023-05-16T20:43:39;9.70;;;4.60;;
16600;SDS011;34891;48.164;11.572;2023-05-16T20:48:42;10.57;;;5.13;;
16600;SDS011;34891;48.164;11.572;2023-05-16T20:53:45;13.13;;;5.97;;
16600;SDS011;34891;48.164;11.572;2023-05-16T20:58:49;10.32;;;4.80;;
16600;SDS011;34891;48.164;11.572;2023-05-16T21:03:52;8.32;;;4.07;;
16600;SDS011;34891;48.164;11.572;2023-05-16T21:08:55;9.65;;;4.50;;
16600;SDS011;34891;48.164;11.572;2023-05-16T21:14:00;9.18;;;3.88;;
16600;SDS011;34891;48.164;11.572;2023-05-16T21:19:14;8.60;;;3.35;;
16600;SDS011;34891;48.164;11.572;2023-05-16T21:24:24;7.72;;;3.50;;
16600;SDS011;34891;48.164;11.572;2023-05-16T21:29:31;7.15;;;3.30;;
16600;SDS011;34891;48.164;11.572;2023-05-16T21:34:35;5.50;;;2.53;;
16600;SDS011;34891;48.164;11.572;2023-05-16T21:39:52;8.13;;;3.20;;
16600;SDS011;34891;48.164;11.572;2023-05-16T21:45:08;4.93;;;2.45;;
16600;SDS011;34891;48.164;11.572;2023-05-16T21:50:21;5.97;;;2.60;;
16600;SDS011;34891;48.164;11.572;2023-05-16T21:55:38;7.32;;;2.70;;
16600;SDS011;34891;48.164;11.572;2023-05-16T22:06:20;5.97;;;2.58;;
16600;SDS011;34891;48.164;11.572;2023-05-16T22:11:30;6.32;;;2.67;;
16600;SDS011;34891;48.164;11.572;2023-05-16T22:16:40;7.85;;;2.35;;
16600;SDS011;34891;48.164;11.572;2023-05-16T22:21:54;5.13;;;2.60;;
16600;SDS011;34891;48.164;11.572;2023-05-16T22:27:04;7.07;;;2.58;;
16600;SDS011;34891;48.164;11.572;2023-05-16T22:32:25;5.78;;;2.50;;
16600;SDS011;34891;48.164;11.572;2023-05-16T22:37:31;3.78;;;2.45;;
16600;SDS011;34891;48.164;11.572;2023-05-16T22:42:37;7.72;;;2.60;;
16600;SDS011;34891;48.164;11.572;2023-05-16T22:47:45;3.28;;;2.15;;
16600;SDS011;34891;48.164;11.572;2023-05-16T22:53:07;7.60;;;2.20;;
16600;SDS011;34891;48.164;11.572;2023-05-16T22:58:10;7.18;;;2.30;;
16600;SDS011;34891;48.164;11.572;2023-05-16T23:03:14;6.10;;;2.27;;
16600;SDS011;34891;48.164;11.572;2023-05-16T23:08:23;7.00;;;2.30;;
16600;SDS011;34891;48.164;11.572;2023-05-16T23:13:44;9.55;;;2.50;;
16600;SDS011;34891;48.164;11.572;2023-05-16T23:18:58;3.65;;;1.95;;
16600;SDS011;34891;48.164;11.572;2023-05-16T23:24:21;4.50;;;2.30;;
16600;SDS011;34891;48.164;11.572;2023-05-16T23:29:30;4.57;;;2.22;;
16600;SDS011;34891;48.164;11.572;2023-05-16T23:34:38;7.13;;;2.85;;
16600;SDS011;34891;48.164;11.572;2023-05-16T23:44:58;5.00;;;2.20;;
16600;SDS011;34891;48.164;11.572;2023-05-16T23:50:12;5.97;;;2.33;;
16600;SDS011;34891;48.164;11.572;2023-05-16T23:55:18;4.35;;;1.75;;
